2011 No Frills All Thrills Trail Run

back to results

Mar. 19, 2011

2011 No Frills All Thrills Trail Run
Huron Meadows Metro Park, Brighton, MI
Provided by Everal Race Management

Overall Female Open Winners




Total
Place Name City Bib No Age Overall Time Pace
1 Cheryl Hill Waterford MI 37 35 10 34:55 6:59/M


Overall Male Open Winners




Total
Place Name City Bib No Age Overall Time Pace
1 Chris Elsey Milford MI 61 25 1 29:10 5:50/M


Overall Female Masters Winners




Total
Place Name City Bib No Age Overall Time Pace
1 Christine Boose Windsor ON 30 51 33 38:51 7:46/M


Overall Male Masters Winners




Total
Place Name City Bib No Age Overall Time Pace
1 Thomas Preiss South Lyon MI 147 41 4 30:36 6:07/M


Female 14 & Under




Total
Place Name City Bib No Age Overall Time Pace
1 Rachael Williams Macomb MI 166 14 134 54:01 10:48/M


Male 14 & Under




Total
Place Name City Bib No Age Overall Time Pace
1 Patrick Seremet Brighton MI 91 2 98 46:41 9:20/M
2 Will Swanson Ypsilanti MI 152 14 133 53:50 10:46/M


Female 15 - 19




Total
Place Name City Bib No Age Overall Time Pace
1 Kira Burnett Troy MI 18 16 31 38:38 7:44/M
2 Christine Auxier Howell MI 128 18 143 55:55 11:11/M
3 Dustin Meyer Toledo OH 131 17 153 59:40 11:56/M


Male 15 - 19




Total
Place Name City Bib No Age Overall Time Pace
1 Jamal Fakih Southgate MI 38 18 3 30:06 6:01/M
2 Daniel Garza Dearborn MI 81 16 5 32:16 6:27/M
3 John Casci Beavercreek OH 66 19 91 45:52 9:10/M


Female 20 - 24




Total
Place Name City Bib No Age Overall Time Pace
1 Beth Casci St. Joseph MI 12 21 27 38:00 7:36/M
2 Karah Leibovich St.louis MO 55 24 38 39:59 8:00/M
3 Ana Buia Livonia MI 2 23 51 41:06 8:13/M
4 Kate Grady Okemos MI 57 21 79 44:17 8:51/M
5 Mandie Hawley Novi MI 121 23 103 48:02 9:36/M
6 Jessica Fabisiak Fenton MI 42 22 104 48:04 9:37/M
7 Michelle Sanchez Lake Orion MI 117 24 125 51:49 10:22/M
8 Renee Muller Livonia MI 115 22 137 54:17 10:51/M


Male 20 - 24




Total
Place Name City Bib No Age Overall Time Pace
1 Benjamin Archangeli Beavercreek OH 13 20 34 38:58 7:48/M
2 Peter Winckles Hamtramck MI 36 24 36 39:13 7:51/M


Female 25 - 29




Total
Place Name City Bib No Age Overall Time Pace
1 Jennifer Baibak Clarkston MI 79 25 53 41:13 8:15/M
2 Kathryn Zemke Ann Arbor MI 112 25 68 42:40 8:32/M
3 Nichole Fabisiak Fenton MI 41 25 69 42:50 8:34/M
4 Colleen Fearn Kimball MI 97 26 108 48:30 9:42/M
5 Jessica Wolf Livonia MI 120 28 138 54:18 10:52/M


Male 25 - 29




Total
Place Name City Bib No Age Overall Time Pace
1 Matt Nester Howell MI 78 27 2 29:52 5:58/M
2 Matthew Barkley Auburn Hills MI 69 28 16 36:16 7:15/M
3 Brandon McClellan Ann Arbor MI 169 27 29 38:07 7:37/M
4 Joe Jankowski Livonia MI 31 28 39 40:13 8:03/M
5 Anthony Kann Brighton MI 124 28 43 40:29 8:06/M
6 Ryan Shain Shelby Township MI 93 25 65 42:22 8:28/M


Female 30 - 34




Total
Place Name City Bib No Age Overall Time Pace
1 Jennifer Hampton New Hudson MI 45 31 14 35:47 7:09/M
2 Katherine Senne Pinckney MI 60 30 37 39:25 7:53/M
3 Sarah Townsend Taylor MI 14 32 57 41:35 8:19/M
4 Sharon Terlap Royal Oak MI 151 32 72 43:04 8:37/M
5 A.marlea Border Fowlerville MI 105 34 92 46:03 9:13/M
6 Adam Droelle Redford MI 123 34 101 47:32 9:30/M
7 Andrea Kong Howell MI 54 34 110 48:49 9:46/M
8 Jodie Haberkorn Pinckney MI 43 34 115 49:11 9:50/M
9 Roquia Draper Royal Oak MI 163 31 127 52:10 10:26/M
10 Jen Wooten St. Clair Shores M 108 33 146 56:12 11:14/M


Male 30 - 34




Total
Place Name City Bib No Age Overall Time Pace
1 David Houser Farmington MI 156 31 12 35:05 7:01/M
2 Bruce Mayrand Brighton MI 94 31 13 35:10 7:02/M
3 James Kupras Farmington MI 174 31 30 38:36 7:43/M
4 Zachary Branigan Ann Arbor MI 65 33 50 41:04 8:13/M
5 Ryan Zatolohr Novi MI 164 34 62 42:13 8:27/M
6 Sam Vansickle Howell MI 71 32 64 42:18 8:28/M
7 Adam Droelle Redford MI 122 30 109 48:46 9:45/M


Female 35 - 39




Total
Place Name City Bib No Age Overall Time Pace
1 Nicolle Mattila Pinckney MI 110 36 48 40:47 8:09/M
2 Karen Kunka Naperville IL 137 37 54 41:19 8:16/M
3 Mel Ream Dearborn MI 24 37 59 41:39 8:20/M
4 Charlene Lepane Royal Oak MI 6 37 60 41:54 8:23/M
5 Melanie Morandini Grosse Pointe Park 132 38 88 45:22 9:04/M
6 Danielle Weinberg Gregory MI 62 36 106 48:27 9:41/M
7 Melinda Scheible Kimball MI 98 36 123 51:02 10:12/M
8 Cyndi Montgomery Holt MI 64 38 148 57:17 11:27/M
9 Michelle Wurzel Mason MI 32 36 149 57:58 11:36/M


Male 35 - 39




Total
Place Name City Bib No Age Overall Time Pace
1 Adrian Carnie Ann Arbor MI 92 39 8 34:06 6:49/M
2 Brian Perron Ann Arbor MI 172 38 23 37:31 7:30/M
3 Jim Watson Oxford MI 76 35 25 37:54 7:35/M
4 Brian Lassaline Westland MI 77 37 52 41:09 8:14/M
5 Ian Cattermole Brighton MI 89 39 61 41:57 8:23/M
6 Steve Novicki New Boston MI 165 39 80 44:31 8:54/M
7 Dave Wooten St. Clair Shores M 107 35 131 52:52 10:34/M


Female 40 - 44




Total
Place Name City Bib No Age Overall Time Pace
1 Belinda Wirth Brighton MI 160 42 46 40:35 8:07/M
2 Abigail Callejas Webberville MI 101 40 77 44:11 8:50/M
3 Michelle Jarrett South Lyon MI 87 44 97 46:39 9:20/M
4 Denise Dashner Temperance MI 9 40 112 48:57 9:47/M
5 Michelle Madden Howell MI 51 44 116 49:17 9:51/M
6 Kimm Bender Ferndale MI 145 42 118 49:45 9:57/M
7 Luann Hodges Perry MI 106 44 119 50:01 10:00/M
8 Melanie Cattermole Brighton MI 28 40 132 53:49 10:46/M
9 Heather Vanderpol Toledo OH 130 41 152 59:40 11:56/M


Male 40 - 44




Total
Place Name City Bib No Age Overall Time Pace
1 Shawn Wehrly Royal Oak MI 159 42 9 34:15 6:51/M
2 Mark Viergutz Canton MI 82 42 19 36:58 7:24/M
3 Matt Stuk Pinckney MI 26 42 22 37:29 7:30/M
4 Matt Callow Ann Arbor MI 116 40 32 38:43 7:45/M
5 Joe Savalle South Lyon MI 7 44 45 40:33 8:07/M
6 Ted Kolp Grosse Pointe Woods 129 42 67 42:36 8:31/M
7 Timothy Bloch Brighton MI 127 42 100 47:09 9:26/M
8 Robert Gallon Northville MI 58 43 136 54:10 10:50/M
9 Dean Williams Fraser MI 167 44 141 55:29 11:06/M
10 Peter Hedermark Harper Woods MI 5 44 156 1:01:34 12:19/M


Female 45 - 49




Total
Place Name City Bib No Age Overall Time Pace
1 Paddi Thornburg Athens MI 176 48 55 41:30 8:18/M
2 Nina Burnett Troy MI 19 45 63 42:14 8:27/M
3 Kathleen Erz St. Clair Shores M 25 46 87 45:22 9:04/M
4 Lisa Schmina Brighton MI 161 45 95 46:32 9:18/M
5 Kris Harris Brighton MI 85 46 128 52:24 10:29/M
6 Terri Mezel Howell MI 73 45 145 56:10 11:14/M


Male 45 - 49




Total
Place Name City Bib No Age Overall Time Pace
1 Andrew Weeks Battle Creek MI 175 47 15 36:04 7:13/M
2 Rob French Dexter MI 113 48 18 36:53 7:23/M
3 Roy Pearsall Highland MI 84 49 20 37:00 7:24/M
4 Billy Tanner Howell MI 144 49 24 37:33 7:31/M
5 Kevin Nummikoski Webberville MI 102 47 26 38:00 7:36/M
6 Linc Wehrly Brighton MI 133 48 28 38:04 7:37/M
7 Ron Galard Brighton MI 111 46 35 39:06 7:49/M
8 Oliver Johnson Webberville MI 103 49 41 40:17 8:03/M
9 Chuck Jarrett South Lyon MI 88 46 42 40:19 8:04/M
10 Dave Berkey Canton MI 35 47 75 43:56 8:47/M
11 Jeff Madden Howell MI 52 49 82 44:38 8:56/M
12 Paul Harkins Brighton MI 136 46 94 46:27 9:17/M
13 Dean Johnson Plymouth MI 15 49 96 46:36 9:19/M
14 Rob Buti Plymouth MI 143 47 121 50:48 10:10/M
15 Dennis Tierney Milford MI 142 48 122 50:48 10:10/M
16 Stephen Rolfe Novi MI 27 47 147 57:04 11:25/M
17 Andy Schmina Brighton MI 162 46 154 1:00:07 12:01/M


Female 50 - 54




Total
Place Name City Bib No Age Overall Time Pace
1 Joyce Segedi Canton MI 47 52 73 43:45 8:45/M
2 Jenny Pruitt Ann Arbor MI 168 52 84 44:57 8:59/M
3 Debbie Wiley Howell MI 109 54 113 49:09 9:50/M
4 Polly Rothermel Livonia MI 141 53 120 50:16 10:03/M
5 Pam Lee-Campbell Brighton MI 53 52 130 52:44 10:33/M
6 Terri Grady Okemos MI 56 51 135 54:03 10:49/M
7 Karie Romanski White Lake MI 63 51 142 55:54 11:11/M
8 Tracy Kopczyk Brighton MI 49 51 144 56:08 11:14/M


Male 50 - 54




Total
Place Name City Bib No Age Overall Time Pace
1 Thomas Piazza Troy MI 173 51 6 32:52 6:34/M
2 Phil French Howell MI 139 54 7 33:01 6:36/M
3 Ray Jeffrey Highland MI 138 51 11 35:03 7:01/M
4 Dave Mann Detroit MI 20 50 21 37:04 7:25/M
5 Paul Farrugia Novi MI 155 52 40 40:15 8:03/M
6 Dennis White Washington MI 100 50 44 40:31 8:06/M
7 Jeff Lassaline Ann Arbor MI 119 51 47 40:41 8:08/M
8 Reed Swanson Ypsilanti MI 153 51 56 41:34 8:19/M
9 Jeff Kerr Belleville MI 39 52 66 42:32 8:30/M
10 Paul Michel Bloomfield Twp MI 148 50 71 42:58 8:36/M
11 Tim Theisen Brighton MI 86 52 83 44:47 8:57/M
12 Bob Rothermel Livonia MI 140 54 90 45:37 9:07/M
13 Phil Hemenway Ann Arbor MI 90 54 93 46:12 9:14/M
14 Domingo Valadez Temperance MI 8 51 111 48:51 9:46/M
15 Anthony Percha Commerce Twp. MI 146 51 117 49:44 9:57/M


Female 55 - 59




Total
Place Name City Bib No Age Overall Time Pace
1 Liz Campbell Leamington ON 158 58 81 44:38 8:56/M
2 Jody Lindell Corunna MI 150 57 85 44:57 8:59/M
3 Marilyn Reichenbach Brighton MI 21 56 102 47:56 9:35/M
4 Diane Patton Belleville MI 135 58 107 48:28 9:42/M
5 Susan Higdon Brighton MI 4 56 151 58:34 11:43/M


Male 55 - 59




Total
Place Name City Bib No Age Overall Time Pace
1 Scott Tice Holt MI 22 56 17 36:51 7:22/M
2 Brad Borgeson Brighton MI 50 59 70 42:52 8:34/M
3 John Cooper Ypsilanti MI 83 55 76 44:03 8:49/M
4 Robin Pearce New Hudson MI 17 57 86 45:13 9:03/M
5 Len Constantine Chesterfield MI 114 57 105 48:04 9:37/M
6 James Debenc Bloomfield Twp MI 1 56 124 51:41 10:20/M
7 Pierre Lavalard Ann Arbor MI 44 59 129 52:36 10:31/M
8 Richard Porte Dearborn MI 11 59 139 54:36 10:55/M


Female 60 & Over




Total
Place Name City Bib No Age Overall Time Pace
1 Terry McLeod Lennon MI 149 64 140 54:55 10:59/M
2 Sandy Weston Brighton MI 75 64 155 1:00:48 12:10/M


Male 60 & Over




Total
Place Name City Bib No Age Overall Time Pace
1 Mark Cryderman Howell MI 170 64 49 40:58 8:12/M
2 James Patton Belleville MI 134 64 58 41:38 8:20/M
3 Michael Curtis Swartz Creek MI 10 61 74 43:53 8:47/M
4 Keith Wright Farmington Hills M 154 60 78 44:15 8:51/M
5 David Campbell Leamington ON 157 64 89 45:25 9:05/M
6 Walter Pheeney Farmington Hills M 46 68 99 47:06 9:25/M
7 Richard Jones Highland MI 171 67 114 49:11 9:50/M
8 Roger Mahlmeister Brighton MI 96 61 126 52:05 10:25/M
9 Larry Weston Brighton MI 74 65 150 58:23 11:41/M